NCAR-RAP Real-Time Weather Data

Output produced by METARs form (23 June 2018  16:11 UTC)
found at http://weather.rap.ucar.edu/surface/
 
Conditions at: KRSW observed 23 June 2018  14:53 UTC
Temperature: 30.0°C (86°F)
Dewpoint: 23.9°C (75°F) [RH = 70%]
Pressure (altimeter): 30.04 inches Hg (1017.4 mb)
[Sea-level pressure: 1016.8 mb]
Winds: from the W (260 degrees) at 7 MPH (6 knots; 3.1 m/s)
Visibility: 10 or more miles (16+ km)
Ceiling: 3300 feet AGL
Clouds: broken clouds at 3300 feet AGL
broken clouds at 4100 feet AGL
broken clouds at 5500 feet AGL
Present Weather: no significant weather observed at this time
KRSW 231453Z 26006KT 10SM BKN033 BKN041 BKN055 30/24 A3004 RMK AO2 LTG DSNT SE SLP168 T03000239 53010

Conditions at: KRSW observed 23 June 2018  13:53 UTC
Temperature: 29.4°C (85°F)
Dewpoint: 23.9°C (75°F) [RH = 72%]
Pressure (altimeter): 30.02 inches Hg (1016.7 mb)
[Sea-level pressure: 1016.3 mb]
Winds: from the WNW (290 degrees) at 6 MPH (5 knots; 2.6 m/s)
Visibility: 10 or more miles (16+ km)
Ceiling: 3700 feet AGL
Clouds: scattered clouds at 2800 feet AGL
broken clouds at 3700 feet AGL
Present Weather: no significant weather observed at this time
KRSW 231353Z 29005KT 10SM SCT028 BKN037 29/24 A3002 RMK AO2 SLP163 T02940239

Conditions at: KRSW observed 23 June 2018  12:53 UTC
Temperature: 29.4°C (85°F)
Dewpoint: 25.0°C (77°F) [RH = 77%]
Pressure (altimeter): 30.02 inches Hg (1016.7 mb)
[Sea-level pressure: 1016.2 mb]
Winds: from the N (350 degrees) at 3 MPH (3 knots; 1.6 m/s)
Visibility: 10 or more miles (16+ km)
Ceiling: at least 12,000 feet AGL
Clouds: sky clear below 12,000 feet AGL
Present Weather: no significant weather observed at this time
KRSW 231253Z 35003KT 10SM CLR 29/25 A3002 RMK AO2 SLP162 T02940250

Conditions at: KRSW observed 23 June 2018  11:53 UTC
Temperature: 27.8°C (82°F)
Dewpoint: 25.0°C (77°F) [RH = 85%]
Pressure (altimeter): 30.01 inches Hg (1016.3 mb)
[Sea-level pressure: 1015.8 mb]
Winds: calm
Visibility: 10 or more miles (16+ km)
Ceiling: at least 12,000 feet AGL
Clouds: sky clear below 12,000 feet AGL
Present Weather: no significant weather observed at this time
KRSW 231153Z 00000KT 10SM CLR 28/25 A3001 RMK AO2 SLP158 70037 T02780250 10278 20250 51009

Conditions at: KRSW observed 23 June 2018  10:53 UTC
Temperature: 25.6°C (78°F)
Dewpoint: 25.0°C (77°F) [RH = 96%]
Pressure (altimeter): 30.00 inches Hg (1016.0 mb)
[Sea-level pressure: 1015.7 mb]
Winds: calm
Visibility: 10 or more miles (16+ km)
Ceiling: at least 12,000 feet AGL
Clouds: sky clear below 12,000 feet AGL
Present Weather: no significant weather observed at this time
KRSW 231053Z 00000KT 10SM CLR 26/25 A3000 RMK AO2 SLP157 T02560250

Conditions at: KRSW observed 23 June 2018  09:53 UTC
Temperature: 25.0°C (77°F)
Dewpoint: 25.0°C (77°F) [RH = 100%]
Pressure (altimeter): 29.99 inches Hg (1015.7 mb)
[Sea-level pressure: 1015.3 mb]
Winds: calm
Visibility: 10 or more miles (16+ km)
Ceiling: at least 12,000 feet AGL
Clouds: sky clear below 12,000 feet AGL
Present Weather: no significant weather observed at this time
KRSW 230953Z 00000KT 10SM CLR 25/25 A2999 RMK AO2 SLP153 T02500250

Conditions at: KRSW observed 23 June 2018  08:53 UTC
Temperature: 25.6°C (78°F)
Dewpoint: 25.0°C (77°F) [RH = 96%]
Pressure (altimeter): 29.98 inches Hg (1015.3 mb)
[Sea-level pressure: 1014.9 mb]
Winds: calm
Visibility: 10 or more miles (16+ km)
Ceiling: at least 12,000 feet AGL
Clouds: sky clear below 12,000 feet AGL
Present Weather: automated observation with no human augmentation;
there may or may not be significant weather present at this time
KRSW 230853Z AUTO 00000KT 10SM CLR 26/25 A2998 RMK AO2 SLP149 T02560250 58007

Conditions at: KRSW observed 23 June 2018  07:53 UTC
Temperature: 25.6°C (78°F)
Dewpoint: 25.0°C (77°F) [RH = 96%]
Pressure (altimeter): 29.98 inches Hg (1015.3 mb)
[Sea-level pressure: 1015.1 mb]
Winds: calm
Visibility: 10 or more miles (16+ km)
Ceiling: at least 12,000 feet AGL
Clouds: sky clear below 12,000 feet AGL
Present Weather: automated observation with no human augmentation;
there may or may not be significant weather present at this time
KRSW 230753Z AUTO 00000KT 10SM CLR 26/25 A2998 RMK AO2 SLP151 T02560250

Conditions at: KRSW observed 23 June 2018  06:53 UTC
Temperature: 26.1°C (79°F)
Dewpoint: 25.6°C (78°F) [RH = 97%]
Pressure (altimeter): 30.00 inches Hg (1016.0 mb)
[Sea-level pressure: 1015.5 mb]
Winds: calm
Visibility: 10 or more miles (16+ km)
Ceiling: at least 12,000 feet AGL
Clouds: sky clear below 12,000 feet AGL
Present Weather: automated observation with no human augmentation;
there may or may not be significant weather present at this time
KRSW 230653Z AUTO 00000KT 10SM CLR 26/26 A3000 RMK AO2 SLP155 T02610256

Conditions at: KRSW observed 23 June 2018  05:53 UTC
Temperature: 26.1°C (79°F)
Dewpoint: 25.0°C (77°F) [RH = 94%]
Pressure (altimeter): 30.00 inches Hg (1016.0 mb)
[Sea-level pressure: 1015.6 mb]
Winds: calm
Visibility: 10 or more miles (16+ km)
Ceiling: at least 12,000 feet AGL
Clouds: sky clear below 12,000 feet AGL
Present Weather: automated observation with no human augmentation;
there may or may not be significant weather present at this time
KRSW 230553Z AUTO 00000KT 10SM CLR 26/25 A3000 RMK AO2 SLP156 T02610250 10300 20261 58002

Conditions at: KRSW observed 23 June 2018  04:53 UTC
Temperature: 26.1°C (79°F)
Dewpoint: 25.0°C (77°F) [RH = 94%]
Pressure (altimeter): 30.01 inches Hg (1016.3 mb)
[Sea-level pressure: 1015.8 mb]
Winds: calm
Visibility: 10 or more miles (16+ km)
Ceiling: at least 12,000 feet AGL
Clouds: sky clear below 12,000 feet AGL
Present Weather: automated observation with no human augmentation;
there may or may not be significant weather present at this time
KRSW 230453Z AUTO 00000KT 10SM CLR 26/25 A3001 RMK AO2 SLP158 T02610250 403280250

Conditions at: KRSW observed 23 June 2018  03:53 UTC
Temperature: 26.1°C (79°F)
Dewpoint: 24.4°C (76°F) [RH = 90%]
Pressure (altimeter): 30.00 inches Hg (1016.0 mb)
[Sea-level pressure: 1015.7 mb]
Winds: from the E (80 degrees) at 3 MPH (3 knots; 1.6 m/s)
Visibility: 10 or more miles (16+ km)
Ceiling: at least 12,000 feet AGL
Clouds: few clouds at 2900 feet AGL
Present Weather: automated observation with no human augmentation;
there may or may not be significant weather present at this time
KRSW 230353Z AUTO 08003KT 10SM FEW029 26/24 A3000 RMK AO2 SLP157 T02610244

Conditions at: KRSW observed 23 June 2018  02:53 UTC
Temperature: 28.9°C (84°F)
Dewpoint: 25.0°C (77°F) [RH = 80%]
Pressure (altimeter): 30.01 inches Hg (1016.3 mb)
[Sea-level pressure: 1015.8 mb]
Winds: calm
Visibility: 10 or more miles (16+ km)
Ceiling: at least 12,000 feet AGL
Clouds: sky clear below 12,000 feet AGL
Present Weather: no significant weather observed at this time
KRSW 230253Z 00000KT 10SM CLR 29/25 A3001 RMK AO2 SLP158 T02890250 51017

Conditions at: KRSW observed 23 June 2018  01:53 UTC
Temperature: 28.9°C (84°F)
Dewpoint: 24.4°C (76°F) [RH = 77%]
Pressure (altimeter): 29.99 inches Hg (1015.7 mb)
[Sea-level pressure: 1015.3 mb]
Winds: calm
Visibility: 10 or more miles (16+ km)
Ceiling: at least 12,000 feet AGL
Clouds: sky clear below 12,000 feet AGL
Present Weather: no significant weather observed at this time
KRSW 230153Z 00000KT 10SM CLR 29/24 A2999 RMK AO2 SLP153 T02890244

Conditions at: KRSW observed 23 June 2018  00:53 UTC
Temperature: 29.4°C (85°F)
Dewpoint: 23.9°C (75°F) [RH = 72%]
Pressure (altimeter): 29.98 inches Hg (1015.3 mb)
[Sea-level pressure: 1014.9 mb]
Winds: from the NW (310 degrees) at 3 MPH (3 knots; 1.6 m/s)
Visibility: 10 or more miles (16+ km)
Ceiling: at least 12,000 feet AGL
Clouds: sky clear below 12,000 feet AGL
Present Weather: no significant weather observed at this time
KRSW 230053Z 31003KT 10SM CLR 29/24 A2998 RMK AO2 SLP149 T02940239

Conditions at: KRSW observed 22 June 2018  23:53 UTC
Temperature: 30.0°C (86°F)
Dewpoint: 24.4°C (76°F) [RH = 72%]
Pressure (altimeter): 29.96 inches Hg (1014.6 mb)
[Sea-level pressure: 1014.1 mb]
Winds: from the NW (310 degrees) at 6 MPH (5 knots; 2.6 m/s)
Visibility: 10 or more miles (16+ km)
Ceiling: at least 12,000 feet AGL
Clouds: sky clear below 12,000 feet AGL
Present Weather: no significant weather observed at this time
KRSW 222353Z 31005KT 10SM CLR 30/24 A2996 RMK AO2 SLP141 60000 T03000244 10328 20300 53004

Conditions at: KRSW observed 22 June 2018  22:53 UTC
Temperature: 31.1°C (88°F)
Dewpoint: 23.3°C (74°F) [RH = 63%]
Pressure (altimeter): 29.95 inches Hg (1014.3 mb)
[Sea-level pressure: 1013.9 mb]
Winds: from the W (280 degrees) at 10 MPH (9 knots; 4.7 m/s)
Visibility: 10 or more miles (16+ km)
Ceiling: at least 12,000 feet AGL
Clouds: scattered clouds at 3700 feet AGL
Present Weather: no significant weather observed at this time
KRSW 222253Z 28009KT 10SM SCT037 31/23 A2995 RMK AO2 RAB17E48 SLP139 P0000 T03110233

Conditions at: KRSW observed 22 June 2018  21:53 UTC
Temperature: 31.1°C (88°F)
Dewpoint: 24.4°C (76°F) [RH = 68%]
Pressure (altimeter): 29.95 inches Hg (1014.3 mb)
[Sea-level pressure: 1013.8 mb]
Winds: from the W (260 degrees) at 9 MPH (8 knots; 4.2 m/s)
Visibility: 10 or more miles (16+ km)
Ceiling: at least 12,000 feet AGL
Clouds: few clouds at 3700 feet AGL
Present Weather: no significant weather observed at this time
KRSW 222153Z 26008KT 10SM FEW037 31/24 A2995 RMK AO2 LTG DSNT E SLP138 T03110244

Conditions at: KRSW observed 22 June 2018  20:53 UTC
Temperature: 31.7°C (89°F)
Dewpoint: 23.9°C (75°F) [RH = 63%]
Pressure (altimeter): 29.94 inches Hg (1014.0 mb)
[Sea-level pressure: 1013.7 mb]
Winds: from the W (280 degrees) at 14 MPH (12 knots; 6.2 m/s)
Visibility: 10 or more miles (16+ km)
Ceiling: at least 12,000 feet AGL
Clouds: few clouds at 4000 feet AGL
Present Weather: no significant weather observed at this time
KRSW 222053Z 28012KT 10SM FEW040 32/24 A2994 RMK AO2 LTG DSNT NE SLP137 T03170239 56016

Conditions at: KRSW observed 22 June 2018  19:53 UTC
Temperature: 32.8°C (91°F)
Dewpoint: 23.9°C (75°F) [RH = 60%]
Pressure (altimeter): 29.96 inches Hg (1014.6 mb)
[Sea-level pressure: 1014.2 mb]
Winds: from the WNW (290 degrees) at 8 MPH (7 knots; 3.6 m/s)
Visibility: 10 or more miles (16+ km)
Ceiling: at least 12,000 feet AGL
Clouds: sky clear below 12,000 feet AGL
Present Weather: no significant weather observed at this time
KRSW 221953Z 29007KT 10SM CLR 33/24 A2996 RMK AO2 SLP142 T03280239

Conditions at: KRSW observed 22 June 2018  18:53 UTC
Temperature: 32.2°C (90°F)
Dewpoint: 23.3°C (74°F) [RH = 59%]
Pressure (altimeter): 29.98 inches Hg (1015.3 mb)
[Sea-level pressure: 1014.8 mb]
Winds: from the W (260 degrees) at 10 MPH (9 knots; 4.7 m/s)
Visibility: 10 or more miles (16+ km)
Ceiling: at least 12,000 feet AGL
Clouds: scattered clouds at 4500 feet AGL
scattered clouds at 5000 feet AGL
Present Weather: no significant weather observed at this time
KRSW 221853Z 26009KT 10SM SCT045 SCT050 32/23 A2998 RMK AO2 SLP148 T03220233

Conditions at: KRSW observed 22 June 2018  17:53 UTC
Temperature: 31.7°C (89°F)
Dewpoint: 22.8°C (73°F) [RH = 59%]
Pressure (altimeter): 29.99 inches Hg (1015.7 mb)
[Sea-level pressure: 1015.3 mb]
Winds: from the W (260 degrees) at 6 MPH (5 knots; 2.6 m/s)
Visibility: 10 or more miles (16+ km)
Ceiling: at least 12,000 feet AGL
Clouds: few clouds at 4400 feet AGL
few clouds at 6000 feet AGL
Present Weather: no significant weather observed at this time
KRSW 221753Z 26005KT 10SM FEW044 FEW060 32/23 A2999 RMK AO2 RAB16E49 SLP153 P0000 60037 T03170228 10322 20261 58009

Conditions at: KRSW observed 22 June 2018  16:53 UTC
Temperature: 31.1°C (88°F)
Dewpoint: 23.9°C (75°F) [RH = 66%]
Pressure (altimeter): 30.01 inches Hg (1016.3 mb)
[Sea-level pressure: 1016.0 mb]
Winds: from the W (280 degrees) at 6 MPH (5 knots; 2.6 m/s)
Visibility: 10 or more miles (16+ km)
Ceiling: 4100 feet AGL
Clouds: broken clouds at 4100 feet AGL
broken clouds at 5000 feet AGL
Present Weather: no significant weather observed at this time
KRSW 221653Z 28005KT 10SM BKN041 BKN050 31/24 A3001 RMK AO2 SLP160 T03110239

Conditions at: KRSW observed 22 June 2018  15:53 UTC
Temperature: 30.6°C (87°F)
Dewpoint: 25.0°C (77°F) [RH = 72%]
Pressure (altimeter): 30.01 inches Hg (1016.3 mb)
[Sea-level pressure: 1016.0 mb]
Winds: from the WSW (240 degrees) at 9 MPH (8 knots; 4.2 m/s)
Visibility: 10 or more miles (16+ km)
Ceiling: at least 12,000 feet AGL
Clouds: scattered clouds at 2500 feet AGL
Present Weather: no significant weather observed at this time
KRSW 221553Z 24008KT 10SM SCT025 31/25 A3001 RMK AO2 RAB27E48 SLP160 P0000 T03060250

Conditions at: KRSW observed 22 June 2018  14:53 UTC
Temperature: 27.8°C (82°F)
Dewpoint: 25.6°C (78°F) [RH = 88%]
Pressure (altimeter): 30.02 inches Hg (1016.7 mb)
[Sea-level pressure: 1016.2 mb]
Winds: from the S (190 degrees) at 3 MPH (3 knots; 1.6 m/s)
Visibility: 10 or more miles (16+ km)
Ceiling: at least 12,000 feet AGL
Clouds: few clouds at 2500 feet AGL
few clouds at 5000 feet AGL
scattered clouds at 6500 feet AGL
Present Weather: no significant weather observed at this time
KRSW 221453Z 19003KT 10SM FEW025 FEW050 SCT065 28/26 A3002 RMK AO2 RAB16E45 SLP162 P0037 60037 T02780256 51009

Conditions at: KRSW observed 22 June 2018  14:34 UTC
Temperature: 27.2°C (81°F)
Dewpoint: 25.0°C (77°F) [RH = 88%]
Pressure (altimeter): 30.02 inches Hg (1016.7 mb)
Winds: from the W (270 degrees) at 5 MPH (4 knots; 2.1 m/s)
Visibility: 10 or more miles (16+ km)
Ceiling: 2800 feet AGL
Clouds: few clouds at 2000 feet AGL
broken clouds at 2800 feet AGL
overcast cloud deck at 7000 feet AGL
Present Weather: -RA  (light rain)
KRSW 221434Z 27004KT 10SM -RA FEW020 BKN028 OVC070 27/25 A3002 RMK AO2 RAB16 P0037 T02720250

Conditions at: KRSW observed 22 June 2018  14:21 UTC
Temperature: 26.7°C (80°F)
Dewpoint: 24.4°C (76°F) [RH = 87%]
Pressure (altimeter): 30.02 inches Hg (1016.7 mb)
Winds: from the NW (310 degrees) at 9 MPH (8 knots; 4.2 m/s)
gusting to 22 MPH (19 knots; 9.9 m/s)
Visibility: 0.75 miles (1.21 km)
Ceiling: 2600 feet AGL
Clouds: few clouds at 1500 feet AGL
broken clouds at 2600 feet AGL
overcast cloud deck at 4900 feet AGL
Present Weather: +RA BR  (heavy rain, mist)
KRSW 221421Z 31008G19KT 3/4SM +RA BR FEW015 BKN026 OVC049 27/24 A3002 RMK AO2 RAB16 P0022 T02670244

Conditions at: KRSW observed 22 June 2018  14:16 UTC
Temperature: 27.8°C (82°F)
Dewpoint: 25.0°C (77°F) [RH = 85%]
Pressure (altimeter): 30.02 inches Hg (1016.7 mb)
Winds: from the WSW (240 degrees) at 16 MPH (14 knots; 7.3 m/s)
Visibility: 2.50 miles (4.02 km)
Ceiling: 2600 feet AGL
Clouds: broken clouds at 2600 feet AGL
Present Weather: +RA  (heavy rain)
KRSW 221416Z 24014KT 2 1/2SM +RA BKN026 28/25 A3002 RMK AO2 RAB16 P0004 T02780250

Conditions at: KRSW observed 22 June 2018  13:53 UTC
Temperature: 30.0°C (86°F)
Dewpoint: 25.0°C (77°F) [RH = 75%]
Pressure (altimeter): 30.01 inches Hg (1016.3 mb)
[Sea-level pressure: 1015.9 mb]
Winds: variable direction winds at 5 MPH (4 knots; 2.1 m/s)
Visibility: 10 or more miles (16+ km)
Ceiling: at least 12,000 feet AGL
Clouds: few clouds at 3100 feet AGL
Present Weather: no significant weather observed at this time
KRSW 221353Z VRB04KT 10SM FEW031 30/25 A3001 RMK AO2 LTG DSNT SE SLP159 T03000250

Conditions at: KRSW observed 22 June 2018  12:53 UTC
Temperature: 27.8°C (82°F)
Dewpoint: 25.0°C (77°F) [RH = 85%]
Pressure (altimeter): 30.01 inches Hg (1016.3 mb)
[Sea-level pressure: 1016.0 mb]
Winds: from the WSW (250 degrees) at 3 MPH (3 knots; 1.6 m/s)
Visibility: 10 or more miles (16+ km)
Ceiling: at least 12,000 feet AGL
Clouds: few clouds at 2700 feet AGL
Present Weather: no significant weather observed at this time
KRSW 221253Z 25003KT 10SM FEW027 28/25 A3001 RMK AO2 SLP160 T02780250

Conditions at: KRSW observed 22 June 2018  11:53 UTC
Temperature: 26.1°C (79°F)
Dewpoint: 25.0°C (77°F) [RH = 94%]
Pressure (altimeter): 29.99 inches Hg (1015.7 mb)
[Sea-level pressure: 1015.3 mb]
Winds: calm
Visibility: 10 or more miles (16+ km)
Ceiling: at least 12,000 feet AGL
Clouds: sky clear below 12,000 feet AGL
Present Weather: no significant weather observed at this time
KRSW 221153Z 00000KT 10SM CLR 26/25 A2999 RMK AO2 SLP153 T02610250 10267 20250

Conditions at: KRSW observed 22 June 2018  10:53 UTC
Temperature: 25.6°C (78°F)
Dewpoint: 23.9°C (75°F) [RH = 90%]
Pressure (altimeter): 29.97 inches Hg (1015.0 mb)
[Sea-level pressure: 1014.6 mb]
Winds: calm
Visibility: 10 or more miles (16+ km)
Ceiling: unknown
Clouds: missing
Present Weather:
SOME DATA ABOVE MAY BE INACCURATE!!!
"$" is an indication the sensor requires maintenance
KRSW 221053Z AUTO 00000KT 10SM 26/24 A2997 RMK AO2 SLP146 T02560239 $

Conditions at: KRSW observed 22 June 2018  09:53 UTC
Temperature: 25.6°C (78°F)
Dewpoint: 23.9°C (75°F) [RH = 90%]
Pressure (altimeter): 29.95 inches Hg (1014.3 mb)
[Sea-level pressure: 1013.8 mb]
Winds: calm
Visibility: 10 or more miles (16+ km)
Ceiling: at least 12,000 feet AGL
Clouds: sky clear below 12,000 feet AGL
Present Weather: no significant weather observed at this time
KRSW 220953Z 00000KT 10SM CLR 26/24 A2995 RMK AO2 SLP138 T02560239

Conditions at: KRSW observed 22 June 2018  08:53 UTC
Temperature: 25.0°C (77°F)
Dewpoint: 23.3°C (74°F) [RH = 90%]
Pressure (altimeter): 29.94 inches Hg (1014.0 mb)
[Sea-level pressure: 1013.4 mb]
Winds: calm
Visibility: 10 or more miles (16+ km)
Ceiling: at least 12,000 feet AGL
Clouds: sky clear below 12,000 feet AGL
Present Weather: automated observation with no human augmentation;
there may or may not be significant weather present at this time
KRSW 220853Z AUTO 00000KT 10SM CLR 25/23 A2994 RMK AO2 SLP134 T02500233 56010

Conditions at: KRSW observed 22 June 2018  07:53 UTC
Temperature: 25.0°C (77°F)
Dewpoint: 24.4°C (76°F) [RH = 96%]
Pressure (altimeter): 29.94 inches Hg (1014.0 mb)
[Sea-level pressure: 1013.5 mb]
Winds: from the SSW (210 degrees) at 5 MPH (4 knots; 2.1 m/s)
Visibility: 10 or more miles (16+ km)
Ceiling: at least 12,000 feet AGL
Clouds: sky clear below 12,000 feet AGL
Present Weather: automated observation with no human augmentation;
there may or may not be significant weather present at this time
KRSW 220753Z AUTO 21004KT 10SM CLR 25/24 A2994 RMK AO2 SLP135 T02500244

Conditions at: KRSW observed 22 June 2018  06:53 UTC
Temperature: 25.6°C (78°F)
Dewpoint: 23.9°C (75°F) [RH = 90%]
Pressure (altimeter): 29.95 inches Hg (1014.3 mb)
[Sea-level pressure: 1014.0 mb]
Winds: from the WSW (240 degrees) at 8 MPH (7 knots; 3.6 m/s)
Visibility: 10 or more miles (16+ km)
Ceiling: at least 12,000 feet AGL
Clouds: sky clear below 12,000 feet AGL
Present Weather: automated observation with no human augmentation;
there may or may not be significant weather present at this time
KRSW 220653Z AUTO 24007KT 10SM CLR 26/24 A2995 RMK AO2 SLP140 T02560239

Conditions at: KRSW observed 22 June 2018  05:53 UTC
Temperature: 26.1°C (79°F)
Dewpoint: 25.0°C (77°F) [RH = 94%]
Pressure (altimeter): 29.97 inches Hg (1015.0 mb)
[Sea-level pressure: 1014.4 mb]
Winds: calm
Visibility: 10 or more miles (16+ km)
Ceiling: at least 12,000 feet AGL
Clouds: sky clear below 12,000 feet AGL
Present Weather: automated observation with no human augmentation;
there may or may not be significant weather present at this time
KRSW 220553Z AUTO 00000KT 10SM CLR 26/25 A2997 RMK AO2 LTG DSNT SW SLP144 T02610250 10289 20256 58003

Conditions at: KRSW observed 22 June 2018  04:53 UTC
Temperature: 26.7°C (80°F)
Dewpoint: 25.6°C (78°F) [RH = 94%]
Pressure (altimeter): 29.98 inches Hg (1015.3 mb)
[Sea-level pressure: 1015.1 mb]
Winds: calm
Visibility: 10 or more miles (16+ km)
Ceiling: at least 12,000 feet AGL
Clouds: sky clear below 12,000 feet AGL
Present Weather: automated observation with no human augmentation;
there may or may not be significant weather present at this time
KRSW 220453Z AUTO 00000KT 10SM CLR 27/26 A2998 RMK AO2 LTG DSNT S SLP151 T02670256 403220244

Conditions at: KRSW observed 22 June 2018  03:53 UTC
Temperature: 27.2°C (81°F)
Dewpoint: 25.0°C (77°F) [RH = 88%]
Pressure (altimeter): 29.99 inches Hg (1015.7 mb)
[Sea-level pressure: 1015.1 mb]
Winds: calm
Visibility: 10 or more miles (16+ km)
Ceiling: at least 12,000 feet AGL
Clouds: sky clear below 12,000 feet AGL
Present Weather: automated observation with no human augmentation;
there may or may not be significant weather present at this time
KRSW 220353Z AUTO 00000KT 10SM CLR 27/25 A2999 RMK AO2 SLP151 T02720250

Conditions at: KRSW observed 22 June 2018  02:53 UTC
Temperature: 27.8°C (82°F)
Dewpoint: 25.0°C (77°F) [RH = 85%]
Pressure (altimeter): 29.97 inches Hg (1015.0 mb)
[Sea-level pressure: 1014.7 mb]
Winds: from the W (260 degrees) at 3 MPH (3 knots; 1.6 m/s)
Visibility: 10 or more miles (16+ km)
Ceiling: at least 12,000 feet AGL
Clouds: scattered clouds at 2900 feet AGL
Present Weather: no significant weather observed at this time
KRSW 220253Z 26003KT 10SM SCT029 28/25 A2997 RMK AO2 SLP147 T02780250 53008

Conditions at: KRSW observed 22 June 2018  01:53 UTC
Temperature: 27.8°C (82°F)
Dewpoint: 25.0°C (77°F) [RH = 85%]
Pressure (altimeter): 29.96 inches Hg (1014.6 mb)
[Sea-level pressure: 1014.3 mb]
Winds: from the W (270 degrees) at 5 MPH (4 knots; 2.1 m/s)
Visibility: 10 or more miles (16+ km)
Ceiling: at least 12,000 feet AGL
Clouds: few clouds at 2900 feet AGL
Present Weather: no significant weather observed at this time
KRSW 220153Z 27004KT 10SM FEW029 28/25 A2996 RMK AO2 SLP143 T02780250

Conditions at: KRSW observed 22 June 2018  00:53 UTC
Temperature: 27.2°C (81°F)
Dewpoint: 24.4°C (76°F) [RH = 85%]
Pressure (altimeter): 29.95 inches Hg (1014.3 mb)
[Sea-level pressure: 1013.9 mb]
Winds: from the SW (220 degrees) at 5 MPH (4 knots; 2.1 m/s)
Visibility: 10 or more miles (16+ km)
Ceiling: at least 12,000 feet AGL
Clouds: sky clear below 12,000 feet AGL
Present Weather: no significant weather observed at this time
KRSW 220053Z 22004KT 10SM CLR 27/24 A2995 RMK AO2 SLP139 T02720244

Conditions at: KRSW observed 21 June 2018  23:53 UTC
Temperature: 28.9°C (84°F)
Dewpoint: 23.3°C (74°F) [RH = 72%]
Pressure (altimeter): 29.95 inches Hg (1014.3 mb)
[Sea-level pressure: 1013.9 mb]
Winds: calm
Visibility: 10 or more miles (16+ km)
Ceiling: at least 12,000 feet AGL
Clouds: sky clear below 12,000 feet AGL
Present Weather: no significant weather observed at this time
KRSW 212353Z 00000KT 10SM CLR 29/23 A2995 RMK AO2 SLP139 T02890233 10300 20283 53008

Conditions at: KRSW observed 21 June 2018  22:53 UTC
Temperature: 29.4°C (85°F)
Dewpoint: 23.3°C (74°F) [RH = 70%]
Pressure (altimeter): 29.94 inches Hg (1014.0 mb)
[Sea-level pressure: 1013.6 mb]
Winds: from the W (270 degrees) at 6 MPH (5 knots; 2.6 m/s)
Visibility: 10 or more miles (16+ km)
Ceiling: at least 12,000 feet AGL
Clouds: sky clear below 12,000 feet AGL
Present Weather: no significant weather observed at this time
KRSW 212253Z 27005KT 10SM CLR 29/23 A2994 RMK AO2 SLP136 T02940233

Conditions at: KRSW observed 21 June 2018  21:53 UTC
Temperature: 29.4°C (85°F)
Dewpoint: 23.9°C (75°F) [RH = 72%]
Pressure (altimeter): 29.91 inches Hg (1013.0 mb)
[Sea-level pressure: 1012.6 mb]
Winds: from the W (260 degrees) at 8 MPH (7 knots; 3.6 m/s)
Visibility: 10 or more miles (16+ km)
Ceiling: at least 12,000 feet AGL
Clouds: sky clear below 12,000 feet AGL
Present Weather: no significant weather observed at this time
KRSW 212153Z 26007KT 10SM CLR 29/24 A2991 RMK AO2 LTG DSNT N SLP126 T02940239

Conditions at: KRSW observed 21 June 2018  20:53 UTC
Temperature: 30.0°C (86°F)
Dewpoint: 23.9°C (75°F) [RH = 70%]
Pressure (altimeter): 29.92 inches Hg (1013.3 mb)
[Sea-level pressure: 1013.1 mb]
Winds: from the WSW (250 degrees) at 8 MPH (7 knots; 3.6 m/s)
Visibility: 10 or more miles (16+ km)
Ceiling: at least 12,000 feet AGL
Clouds: sky clear below 12,000 feet AGL
Present Weather: no significant weather observed at this time
KRSW 212053Z 25007KT 10SM CLR 30/24 A2992 RMK AO2 LTG DSNT N AND NE SLP131 T03000239 56008

Conditions at: KRSW observed 21 June 2018  19:53 UTC
Temperature: 30.0°C (86°F)
Dewpoint: 23.3°C (74°F) [RH = 67%]
Pressure (altimeter): 29.93 inches Hg (1013.6 mb)
[Sea-level pressure: 1013.2 mb]
Winds: from the W (260 degrees) at 10 MPH (9 knots; 4.7 m/s)
Visibility: 10 or more miles (16+ km)
Ceiling: at least 12,000 feet AGL
Clouds: sky clear below 12,000 feet AGL
Present Weather: no significant weather observed at this time
KRSW 211953Z 26009KT 10SM CLR 30/23 A2993 RMK AO2 LTG DSNT N-SE SLP132 T03000233

Conditions at: KRSW observed 21 June 2018  18:53 UTC
Temperature: 30.0°C (86°F)
Dewpoint: 23.3°C (74°F) [RH = 67%]
Pressure (altimeter): 29.94 inches Hg (1014.0 mb)
[Sea-level pressure: 1013.5 mb]
Winds: from the W (260 degrees) at 8 MPH (7 knots; 3.6 m/s)
Visibility: 10 or more miles (16+ km)
Ceiling: at least 12,000 feet AGL
Clouds: sky clear below 12,000 feet AGL
Present Weather: no significant weather observed at this time
KRSW 211853Z 26007KT 10SM CLR 30/23 A2994 RMK AO2 LTG DSNT NE AND SE TSE1759B02E17 SLP135 T03000233

Conditions at: KRSW observed 21 June 2018  18:43 UTC
Temperature: 30.0°C (86°F)
Dewpoint: 23.3°C (74°F) [RH = 67%]
Pressure (altimeter): 29.93 inches Hg (1013.6 mb)
Winds: from the W (270 degrees) at 9 MPH (8 knots; 4.2 m/s)
Visibility: 10 or more miles (16+ km)
Ceiling: at least 12,000 feet AGL
Clouds: sky clear below 12,000 feet AGL
Present Weather: VCTS  (thunderstorm in vicinity)
KRSW 211843Z 27008KT 10SM VCTS CLR 30/23 A2993 RMK AO2 LTG DSNT NE AND SE TSE1759B02E17 T03000233

Conditions at: KRSW observed 21 June 2018  18:33 UTC
Temperature: 30.0°C (86°F)
Dewpoint: 23.9°C (75°F) [RH = 70%]
Pressure (altimeter): 29.93 inches Hg (1013.6 mb)
Winds: from the W (270 degrees) at 9 MPH (8 knots; 4.2 m/s)
Visibility: 10 or more miles (16+ km)
Ceiling: at least 12,000 feet AGL
Clouds: few clouds at 6500 feet AGL
few clouds at 9500 feet AGL
Present Weather: no significant weather observed at this time
KRSW 211833Z 27008KT 10SM FEW065 FEW095 30/24 A2993 RMK AO2 LTG DSNT NE-SE TSE1759B02E17 T03000239

Conditions at: KRSW observed 21 June 2018  18:23 UTC
Temperature: 30.0°C (86°F)
Dewpoint: 23.9°C (75°F) [RH = 70%]
Pressure (altimeter): 29.94 inches Hg (1014.0 mb)
Winds: from the W (260 degrees) at 8 MPH (7 knots; 3.6 m/s)
Visibility: 10 or more miles (16+ km)
Ceiling: 9000 feet AGL
Clouds: few clouds at 7000 feet AGL
broken clouds at 9000 feet AGL
Present Weather: VCTS  (thunderstorm in vicinity)
KRSW 211823Z 26007KT 10SM VCTS FEW070 BKN090 30/24 A2994 RMK AO2 LTG DSNT NE-SE TSE1759B02E17 T03000239

Conditions at: KRSW observed 21 June 2018  17:53 UTC
Temperature: 28.9°C (84°F)
Dewpoint: 25.6°C (78°F) [RH = 82%]
Pressure (altimeter): 29.95 inches Hg (1014.3 mb)
[Sea-level pressure: 1013.8 mb]
Winds: calm
Visibility: 9 miles (14 km)
Ceiling: 9000 feet AGL
Clouds: few clouds at 4900 feet AGL
broken clouds at 9000 feet AGL
overcast cloud deck at 11000 feet AGL
Present Weather: TS  (thunderstorm)
KRSW 211753Z 00000KT 9SM TS FEW049 BKN090 OVC110 29/26 A2995 RMK AO2 LTG DSNT E AND SE TSB44 SLP138 60000 T02890256 10322 20267 56006

Conditions at: KRSW observed 21 June 2018  17:50 UTC
Temperature: 29.0°C (84°F)
Dewpoint: 26.0°C (79°F) [RH = 84%]
Pressure (altimeter): 29.95 inches Hg (1014.3 mb)
Winds: calm
Visibility: 8 miles (13 km)
Ceiling: 9500 feet AGL
Clouds: few clouds at 4900 feet AGL
scattered clouds at 7000 feet AGL
overcast cloud deck at 9500 feet AGL
Present Weather: TS  (thunderstorm)
KRSW 211750Z 00000KT 8SM TS FEW049 SCT070 OVC095 29/26 A2995 RMK AO2 LTG DSNT E AND SE TSB44

Conditions at: KRSW observed 21 June 2018  17:20 UTC
Temperature: 27.8°C (82°F)
Dewpoint: 25.6°C (78°F) [RH = 88%]
Pressure (altimeter): 29.95 inches Hg (1014.3 mb)
Winds: from the N (360 degrees) at 9 MPH (8 knots; 4.2 m/s)
Visibility: 7 miles (11 km)
Ceiling: 3800 feet AGL
Clouds: broken clouds at 3800 feet AGL
broken clouds at 4600 feet AGL
overcast cloud deck at 5500 feet AGL
Present Weather: VCTS  (thunderstorm in vicinity)
KRSW 211720Z 36008KT 7SM VCTS BKN038 BKN046 OVC055 28/26 A2995 RMK AO2 LTG DSNT E AND SE T02780256

Conditions at: KRSW observed 21 June 2018  16:55 UTC
Temperature: 31.7°C (89°F)
Dewpoint: 24.4°C (76°F) [RH = 65%]
Pressure (altimeter): 29.96 inches Hg (1014.6 mb)
Winds: variable direction winds at 5 MPH (4 knots; 2.1 m/s)
Visibility: 10 or more miles (16+ km)
Ceiling: 3700 feet AGL
Clouds: broken clouds at 3700 feet AGL
Present Weather: no significant weather observed at this time
KRSW 211655Z VRB04KT 10SM BKN037 32/24 A2996 RMK AO2 T03170244

Conditions at: KRSW observed 21 June 2018  16:53 UTC
Temperature: 32.2°C (90°F)
Dewpoint: 24.4°C (76°F) [RH = 64%]
Pressure (altimeter): 29.96 inches Hg (1014.6 mb)
[Sea-level pressure: 1014.2 mb]
Winds: from the WNW (300 degrees) at 6 MPH (5 knots; 2.6 m/s)
Visibility: 10 or more miles (16+ km)
Ceiling: 3700 feet AGL
Clouds: broken clouds at 3700 feet AGL
Present Weather: VCTS  (thunderstorm in vicinity)
KRSW 211653Z 30005KT 10SM VCTS BKN037 32/24 A2996 RMK AO2 TSE39 SLP142 T03220244

Conditions at: KRSW observed 21 June 2018  16:45 UTC
Temperature: 31.7°C (89°F)
Dewpoint: 23.9°C (75°F) [RH = 63%]
Pressure (altimeter): 29.96 inches Hg (1014.6 mb)
Winds: from the NW (320 degrees) at 9 MPH (8 knots; 4.2 m/s)
Visibility: 10 or more miles (16+ km)
Ceiling: 3700 feet AGL
Clouds: broken clouds at 3700 feet AGL
broken clouds at 4400 feet AGL
Present Weather: VCTS  (thunderstorm in vicinity)
KRSW 211645Z 32008KT 10SM VCTS BKN037 BKN044 32/24 A2996 RMK AO2 TSE39 T03170239